createdAt,value
2018-04-15T00:01:19.542Z,83.90
2018-04-15T00:03:45.943Z,84.30
2018-04-15T00:06:12.359Z,84.80
2018-04-15T00:08:38.765Z,84.50
2018-04-15T00:11:05.148Z,84.40
2018-04-15T00:13:31.566Z,84.90
2018-04-15T00:15:58.012Z,85.20
2018-04-15T00:18:24.375Z,85.80
2018-04-15T00:20:50.786Z,85.90
2018-04-15T00:23:17.174Z,85.20
2018-04-15T00:25:44.319Z,83.70
2018-04-15T00:28:10.713Z,83.70
2018-04-15T00:30:38.636Z,82.60
2018-04-15T00:33:05.034Z,82.60
2018-04-15T00:35:31.415Z,83.30
2018-04-15T00:37:57.835Z,83.20
2018-04-15T00:40:24.228Z,82.90
2018-04-15T00:42:52.105Z,83.50
2018-04-15T00:45:18.515Z,83.50
2018-04-15T00:47:44.900Z,84.10
2018-04-15T00:50:11.270Z,84.70
2018-04-15T00:52:37.662Z,84.60
2018-04-15T00:55:04.057Z,84.10
2018-04-15T00:57:30.431Z,84.30
2018-04-15T01:00:10.506Z,83.70
2018-04-15T01:02:36.945Z,83.70
2018-04-15T01:05:03.379Z,82.50
2018-04-15T01:07:29.758Z,82.70
2018-04-15T01:09:56.958Z,85.10
2018-04-15T01:12:23.349Z,84.40
2018-04-15T01:14:50.512Z,86.70
2018-04-15T01:17:16.914Z,86.60
2018-04-15T01:19:44.063Z,86.80
2018-04-15T01:22:11.207Z,87.20
2018-04-15T01:24:39.079Z,86.70
2018-04-15T01:27:05.485Z,86.70
2018-04-15T01:29:31.913Z,86.80
2018-04-15T01:31:58.488Z,85.20
2018-04-15T01:34:25.624Z,84.90
2018-04-15T01:36:52.772Z,84.40
2018-04-15T01:39:20.651Z,84.50
2018-04-15T01:41:47.788Z,85.20
2018-04-15T01:44:14.180Z,85.20
2018-04-15T01:46:40.571Z,84.70
2018-04-15T01:49:07.694Z,86.10
2018-04-15T01:51:35.605Z,85.60
2018-04-15T01:54:01.997Z,85.60
2018-04-15T01:56:28.404Z,85.80
2018-04-15T01:58:54.771Z,85.70
2018-04-15T02:01:21.938Z,86.30
2018-04-15T02:03:49.088Z,86.10
2018-04-15T02:06:16.334Z,85.60
2018-04-15T02:08:43.487Z,86.20
2018-04-15T02:11:10.676Z,86.30
2018-04-15T02:13:37.117Z,86.30
2018-04-15T02:16:03.550Z,86.90
2018-04-15T02:18:30.006Z,88.00
2018-04-15T02:20:57.939Z,87.30
2018-04-15T02:23:24.360Z,87.20
2018-04-15T02:25:50.749Z,85.60
2018-04-15T02:28:17.946Z,85.50
2018-04-15T02:30:44.358Z,85.60
2018-04-15T02:33:11.555Z,86.20
2018-04-15T02:35:37.958Z,86.10
2018-04-15T02:38:04.355Z,87.00
2018-04-15T02:40:31.485Z,87.50
2018-04-15T02:42:57.891Z,87.50
2018-04-15T02:45:24.276Z,87.70
2018-04-15T02:47:50.662Z,87.30
2018-04-15T02:50:17.055Z,87.30
2018-04-15T02:52:43.480Z,87.30
2018-04-15T02:55:10.626Z,87.40
2018-04-15T02:57:37.797Z,87.50
2018-04-15T03:00:04.927Z,86.90
2018-04-15T03:02:32.062Z,86.60
2018-04-15T03:04:58.461Z,86.50
2018-04-15T03:07:24.932Z,86.30
2018-04-15T03:09:52.123Z,86.00
2018-04-15T03:12:18.506Z,85.90
2018-04-15T03:14:44.896Z,85.90
2018-04-15T03:17:11.277Z,87.20
2018-04-15T03:19:37.670Z,88.10
2018-04-15T03:22:04.076Z,88.10
2018-04-15T03:24:30.458Z,87.60
2018-04-15T03:26:58.401Z,87.10
2018-04-15T03:29:24.786Z,87.00
2018-04-15T03:31:51.994Z,86.90
2018-04-15T03:34:18.424Z,86.90
2018-04-15T03:36:44.856Z,86.00
2018-04-15T03:39:11.249Z,86.80
2018-04-15T03:41:37.656Z,86.70
2018-04-15T03:44:04.051Z,87.20
2018-04-15T03:46:30.472Z,87.50
2018-04-15T03:48:56.867Z,88.20
2018-04-15T03:51:24.038Z,88.60
2018-04-15T03:53:50.453Z,88.60
2018-04-15T03:56:17.595Z,87.70
2018-04-15T03:58:44.743Z,88.10
2018-04-15T04:01:11.138Z,88.10
2018-04-15T04:03:37.540Z,87.90
2018-04-15T04:06:03.984Z,87.90
2018-04-15T04:08:30.384Z,88.50
2018-04-15T04:10:56.796Z,88.40
2018-04-15T04:13:23.976Z,87.80
2018-04-15T04:15:50.419Z,87.70
2018-04-15T04:18:29.070Z,87.30
2018-04-15T04:21:07.803Z,87.90
2018-04-15T04:23:57.322Z,87.70
2018-04-15T04:26:23.711Z,88.10
2018-04-15T04:28:50.156Z,88.70
2018-04-15T04:31:16.552Z,89.00
2018-04-15T04:33:42.942Z,88.80
2018-04-15T04:36:09.383Z,88.80
2018-04-15T04:38:36.560Z,88.10
2018-04-15T04:41:03.653Z,88.00
2018-04-15T04:43:30.793Z,88.50
2018-04-15T04:45:57.219Z,88.50
2018-04-15T04:48:23.615Z,88.50
2018-04-15T04:50:50.022Z,88.50
2018-04-15T04:53:17.147Z,88.30
2018-04-15T04:55:43.549Z,88.20
2018-04-15T04:58:09.950Z,88.80
2018-04-15T05:00:36.358Z,88.90
2018-04-15T05:03:03.495Z,89.10
2018-04-15T05:05:30.648Z,89.40
2018-04-15T05:07:57.119Z,88.80
2018-04-15T05:10:23.537Z,89.10
2018-04-15T05:12:50.695Z,89.30
2018-04-15T05:15:17.091Z,89.30
2018-04-15T05:17:43.497Z,88.50
2018-04-15T05:20:09.903Z,87.70
2018-04-15T05:22:36.303Z,88.50
2018-04-15T05:25:03.498Z,88.60
2018-04-15T05:27:29.915Z,88.60
2018-04-15T05:29:56.344Z,88.80
2018-04-15T05:32:22.751Z,88.60
2018-04-15T05:34:49.891Z,88.70
2018-04-15T05:37:16.284Z,89.20
2018-04-15T05:39:42.666Z,88.80
2018-04-15T05:42:09.790Z,88.70
2018-04-15T05:44:36.200Z,88.70
2018-04-15T05:47:02.602Z,88.70
2018-04-15T05:49:28.996Z,88.60
2018-04-15T05:51:55.396Z,88.20
2018-04-15T05:54:21.823Z,88.10
2018-04-15T05:56:48.216Z,88.30
2018-04-15T05:59:14.624Z,88.00
2018-04-15T06:01:41.154Z,87.90
2018-04-15T06:04:07.550Z,87.90
2018-04-15T06:06:33.935Z,88.20
2018-04-15T06:09:01.093Z,87.20
2018-04-15T06:11:28.263Z,87.60
2018-04-15T06:13:54.669Z,87.60
2018-04-15T06:16:21.803Z,88.00
2018-04-15T06:18:49.004Z,88.10
2018-04-15T06:21:15.406Z,88.20
2018-04-15T06:23:42.533Z,88.80
2018-04-15T06:26:08.931Z,88.20
2018-04-15T06:28:35.348Z,88.10
2018-04-15T06:31:01.792Z,88.20
2018-04-15T06:33:28.197Z,87.90
2018-04-15T06:35:55.334Z,88.20
2018-04-15T06:38:22.946Z,88.50
2018-04-15T06:40:49.344Z,88.50
2018-04-15T06:43:16.484Z,89.00
2018-04-15T06:45:43.659Z,89.10
2018-04-15T06:48:10.066Z,89.00
2018-04-15T06:50:37.227Z,87.90
2018-04-15T06:53:03.622Z,87.90
2018-04-15T06:55:30.013Z,88.10
2018-04-15T06:57:56.409Z,88.40
2018-04-15T07:00:23.552Z,88.20
2018-04-15T07:02:50.121Z,88.10
2018-04-15T07:05:16.512Z,88.30
2018-04-15T07:07:42.895Z,89.00
2018-04-15T07:10:09.278Z,89.30
2018-04-15T07:12:35.678Z,89.00
2018-04-15T07:15:02.076Z,88.70
2018-04-15T07:17:28.579Z,88.20
2018-04-15T07:19:56.443Z,86.80
2018-04-15T07:22:22.843Z,86.90
2018-04-15T07:24:49.253Z,86.40
2018-04-15T07:27:15.664Z,86.00
2018-04-15T07:29:42.067Z,85.90
2018-04-15T07:32:08.476Z,85.50
2018-04-15T07:34:34.865Z,86.30
2018-04-15T07:37:01.280Z,85.70
2018-04-15T07:39:28.450Z,83.20
2018-04-15T07:41:54.958Z,83.20
2018-04-15T07:44:22.127Z,80.40
2018-04-15T07:46:48.577Z,80.40
2018-04-15T07:49:15.033Z,80.30
2018-04-15T07:51:41.488Z,80.10
2018-04-15T07:54:13.778Z,80.80
2018-04-15T07:56:40.947Z,81.00
2018-04-15T07:59:08.129Z,82.60
2018-04-15T08:01:34.558Z,82.60
2018-04-15T08:04:00.955Z,82.20
2018-04-15T08:06:28.264Z,80.70
2018-04-15T08:08:54.687Z,80.60
2018-04-15T08:11:21.102Z,78.80
2018-04-15T08:13:47.506Z,78.80
2018-04-15T08:16:14.649Z,77.90
2018-04-15T08:18:41.786Z,78.10
2018-04-15T08:21:08.272Z,77.80
2018-04-15T08:23:34.685Z,75.20
2018-04-15T08:26:02.696Z,74.20
2018-04-15T08:28:29.105Z,74.20
2018-04-15T08:30:55.504Z,75.60
2018-04-15T08:33:22.700Z,73.20
2018-04-15T08:35:49.126Z,73.20
2018-04-15T08:38:15.516Z,72.20
2018-04-15T08:40:42.681Z,73.00
2018-04-15T08:43:09.099Z,72.40
2018-04-15T08:45:36.242Z,73.10
2018-04-15T08:48:02.683Z,73.00
2018-04-15T08:50:29.833Z,73.10
2018-04-15T08:52:56.224Z,73.00
2018-04-15T08:55:22.624Z,71.00
2018-04-15T08:57:49.036Z,70.00
2018-04-15T09:00:16.188Z,69.10
2018-04-15T09:02:43.327Z,68.00
2018-04-15T09:05:09.747Z,67.90
2018-04-15T09:07:36.964Z,69.10
2018-04-15T09:10:03.484Z,69.00
2018-04-15T09:12:29.887Z,69.50
2018-04-15T09:14:57.069Z,70.20
2018-04-15T09:17:23.496Z,70.20
2018-04-15T09:19:49.956Z,70.20
2018-04-15T09:22:16.368Z,67.80
2018-04-15T09:24:42.765Z,66.90
2018-04-15T09:29:35.623Z,66.20
2018-04-15T09:32:04.504Z,64.50
2018-04-15T09:34:32.388Z,64.90
2018-04-15T09:36:59.518Z,65.20
2018-04-15T09:39:25.941Z,65.60
2018-04-15T09:41:52.326Z,65.30
2018-04-15T09:44:18.770Z,65.80
2018-04-15T09:46:45.177Z,66.50
2018-04-15T09:49:12.316Z,66.90
2018-04-15T09:51:38.728Z,66.90
2018-04-15T09:54:05.164Z,66.20
2018-04-15T09:56:31.577Z,65.80
2018-04-15T09:58:57.999Z,65.50
2018-04-15T10:01:24.412Z,64.60
2018-04-15T10:03:50.821Z,62.40
2018-04-15T10:06:17.247Z,63.50
2018-04-15T10:08:44.432Z,64.90
2018-04-15T10:11:10.860Z,64.90
2018-04-15T10:13:37.703Z,64.70
2018-04-15T10:16:04.106Z,62.70
2018-04-15T10:18:31.317Z,62.90
2018-04-15T10:20:57.734Z,62.80
2018-04-15T10:23:24.143Z,64.50
2018-04-15T10:25:52.280Z,62.30
2018-04-15T10:28:18.691Z,61.60
2018-04-15T10:30:45.111Z,60.50
2018-04-15T10:33:11.506Z,59.80
2018-04-15T10:35:38.654Z,61.60
2018-04-15T10:38:05.781Z,62.60
2018-04-15T10:40:32.188Z,62.60
2018-04-15T10:42:58.580Z,62.80
2018-04-15T10:45:25.732Z,62.10
2018-04-15T10:47:52.897Z,62.10
2018-04-15T10:50:19.304Z,62.10
2018-04-15T10:52:46.475Z,63.70
2018-04-15T10:55:12.905Z,63.70
2018-04-15T10:57:39.311Z,61.70
2018-04-15T11:00:05.754Z,62.20
2018-04-15T11:02:32.910Z,61.80
2018-04-15T11:05:00.046Z,61.80
2018-04-15T11:07:26.444Z,61.70
2018-04-15T11:09:52.842Z,63.20
2018-04-15T11:12:19.249Z,61.70
2018-04-15T11:14:45.655Z,59.90
2018-04-15T11:17:13.524Z,60.00
2018-04-15T11:19:39.995Z,59.90
2018-04-15T11:22:06.424Z,58.90
2018-04-15T11:24:33.611Z,57.90
2018-04-15T11:27:00.129Z,57.90
2018-04-15T11:29:26.535Z,59.00
2018-04-15T11:31:53.691Z,59.20
2018-04-15T11:34:20.829Z,58.90
2018-04-15T11:36:48.050Z,59.20
2018-04-15T11:39:14.396Z,59.10
2018-04-15T11:41:40.804Z,60.20
2018-04-15T11:44:07.242Z,60.40
2018-04-15T11:46:33.647Z,60.40
2018-04-15T11:49:00.044Z,60.50
2018-04-15T11:51:27.175Z,59.60
2018-04-15T11:53:53.564Z,59.60
2018-04-15T11:56:20.002Z,59.30
2018-04-15T11:58:46.408Z,59.00
2018-04-15T12:01:13.573Z,58.60
2018-04-15T12:03:40.014Z,58.70
2018-04-15T12:06:06.417Z,58.60
2018-04-15T12:08:33.569Z,58.40
2018-04-15T12:11:00.724Z,57.20
2018-04-15T12:13:27.854Z,57.70
2018-04-15T12:15:55.013Z,58.20
2018-04-15T12:18:22.178Z,59.00
2018-04-15T12:20:48.631Z,58.80
2018-04-15T12:23:15.061Z,59.30
2018-04-15T12:25:42.201Z,57.70
2018-04-15T12:28:10.082Z,58.90
2018-04-15T12:30:36.638Z,58.90
2018-04-15T12:33:03.024Z,57.60
2018-04-15T12:35:30.202Z,58.60
2018-04-15T12:37:56.616Z,58.70
2018-04-15T12:40:23.755Z,57.40
2018-04-15T12:42:50.897Z,57.30
2018-04-15T12:45:17.290Z,57.30
2018-04-15T12:47:43.679Z,56.50
2018-04-15T12:50:10.842Z,57.00
2018-04-15T12:52:37.244Z,57.00
2018-04-15T12:55:04.403Z,56.70
2018-04-15T12:57:30.831Z,57.00
2018-04-15T12:59:57.988Z,57.20
2018-04-15T13:02:25.150Z,57.90
2018-04-15T13:04:51.542Z,57.90
2018-04-15T13:07:17.933Z,57.50
2018-04-15T13:09:44.344Z,57.00
2018-04-15T13:12:18.289Z,57.20
2018-04-15T13:14:44.767Z,57.10
2018-04-15T13:17:11.233Z,55.90
2018-04-15T13:19:37.623Z,56.30
2018-04-15T13:22:04.006Z,56.40
2018-04-15T13:24:30.398Z,55.40
2018-04-15T13:26:56.771Z,56.10
2018-04-15T13:29:23.193Z,57.30
2018-04-15T13:31:49.666Z,56.30
2018-04-15T13:34:16.067Z,55.40
2018-04-15T13:36:42.467Z,54.30
2018-04-15T13:39:08.932Z,54.20
2018-04-15T13:41:35.311Z,53.60
2018-04-15T13:44:01.723Z,55.10
2018-04-15T13:46:28.107Z,55.90
2018-04-15T13:48:55.262Z,55.40
2018-04-15T13:51:21.655Z,55.20
2018-04-15T13:53:48.065Z,54.60
2018-04-15T13:56:14.492Z,54.40
2018-04-15T13:58:40.907Z,54.50
2018-04-15T14:01:07.312Z,56.40
2018-04-15T14:03:34.472Z,55.10
2018-04-15T14:06:01.627Z,56.10
2018-04-15T14:08:28.037Z,56.10
2018-04-15T14:10:55.193Z,54.10
2018-04-15T14:13:21.620Z,54.20
2018-04-15T14:15:48.057Z,53.80
2018-04-15T14:18:14.496Z,53.70
2018-04-15T14:20:41.635Z,55.50
2018-04-15T14:23:08.041Z,55.30
2018-04-15T14:25:34.442Z,54.40
2018-04-15T14:28:00.846Z,55.10
2018-04-15T14:30:27.988Z,57.10
2018-04-15T14:32:54.457Z,57.10
2018-04-15T14:35:20.852Z,57.30
2018-04-15T14:37:47.252Z,57.50
2018-04-15T14:40:13.756Z,58.20
2018-04-15T14:42:40.176Z,57.90
2018-04-15T14:45:07.318Z,58.80
2018-04-15T14:47:34.530Z,58.80
2018-04-15T14:50:14.686Z,58.70
2018-04-15T14:52:41.056Z,59.50
2018-04-15T14:55:08.204Z,61.10
2018-04-15T14:57:35.352Z,61.40
2018-04-15T15:00:01.761Z,61.30
2018-04-15T15:02:28.169Z,61.10
2018-04-15T15:04:54.593Z,61.80
2018-04-15T15:07:21.017Z,62.20
2018-04-15T15:09:47.451Z,62.40
2018-04-15T15:12:13.854Z,62.60
2018-04-15T15:14:41.804Z,64.00
2018-04-15T15:17:08.457Z,64.00
2018-04-15T15:19:35.681Z,64.30
2018-04-15T15:22:02.079Z,64.90
2018-04-15T15:24:28.485Z,66.10
2018-04-15T15:26:55.647Z,66.20
2018-04-15T15:29:22.061Z,66.20
2018-04-15T15:31:49.253Z,67.30
2018-04-15T15:34:15.655Z,66.50
2018-04-15T15:36:42.788Z,67.00
2018-04-15T15:39:09.199Z,67.00
2018-04-15T15:41:35.615Z,68.20
2018-04-15T15:44:02.037Z,68.30
2018-04-15T15:46:28.458Z,68.90
2018-04-15T15:48:54.991Z,68.30
2018-04-15T15:51:22.118Z,67.90
2018-04-15T15:53:49.301Z,69.30
2018-04-15T15:56:16.071Z,69.30
2018-04-15T15:58:42.464Z,70.60
2018-04-15T16:01:08.881Z,71.10
2018-04-15T16:03:36.071Z,72.00
2018-04-15T16:06:02.480Z,71.90
2018-04-15T16:08:28.871Z,71.80
2018-04-15T16:10:55.272Z,72.20
2018-04-15T16:13:21.679Z,72.00
2018-04-15T16:15:48.070Z,71.80
2018-04-15T16:18:15.217Z,72.60
2018-04-15T16:20:41.628Z,71.80
2018-04-15T16:23:08.037Z,72.00
2018-04-15T16:25:34.457Z,72.10
2018-04-15T16:28:00.874Z,71.50
2018-04-15T16:30:28.011Z,71.20
2018-04-15T16:32:54.404Z,71.20
2018-04-15T16:35:20.810Z,71.70
2018-04-15T16:37:48.177Z,72.00
2018-04-15T16:40:14.764Z,71.70
2018-04-15T16:42:41.953Z,71.80
2018-04-15T16:45:08.376Z,71.70
2018-04-15T16:47:34.885Z,72.90
2018-04-15T16:50:02.106Z,73.30
2018-04-15T16:52:28.571Z,73.30
2018-04-15T16:54:55.733Z,73.80
2018-04-15T16:57:22.905Z,74.20
2018-04-15T16:59:49.300Z,74.20
2018-04-15T17:02:16.476Z,76.90
2018-04-15T17:04:42.913Z,76.90
2018-04-15T17:07:09.307Z,79.00
2018-04-15T17:09:35.704Z,80.20
2018-04-15T17:12:02.204Z,80.40
2018-04-15T17:14:29.334Z,81.20
2018-04-15T17:16:55.752Z,81.20
2018-04-15T17:19:23.636Z,81.50
2018-04-15T17:21:50.823Z,81.60
2018-04-15T17:24:17.354Z,81.50
2018-04-15T17:26:43.988Z,81.90
2018-04-15T17:29:10.433Z,82.10
2018-04-15T17:31:36.885Z,82.30
2018-04-15T17:34:03.357Z,82.50
2018-04-15T17:36:30.536Z,83.50
2018-04-15T17:38:56.987Z,83.00
2018-04-15T17:41:23.439Z,83.30
2018-04-15T17:43:49.884Z,83.40
2018-04-15T17:46:16.316Z,83.50
2018-04-15T17:48:42.917Z,83.70
2018-04-15T17:51:09.354Z,83.50
2018-04-15T17:53:35.899Z,83.20
2018-04-15T17:56:02.344Z,83.40
2018-04-15T17:58:28.939Z,83.60
2018-04-15T18:00:55.389Z,84.10
2018-04-15T18:03:22.302Z,84.50
2018-04-15T18:05:50.449Z,84.90
2018-04-15T18:08:19.300Z,84.90
2018-04-15T18:10:46.686Z,85.10
2018-04-15T18:13:14.047Z,85.00
2018-04-15T18:15:42.244Z,85.70
2018-04-15T18:18:08.748Z,85.70
2018-04-15T18:20:36.373Z,85.80
2018-04-15T18:23:04.449Z,86.00
2018-04-15T18:25:31.294Z,86.20
2018-04-15T18:28:00.372Z,86.40
2018-04-15T18:30:26.903Z,86.40
2018-04-15T18:32:54.276Z,86.50
2018-04-15T18:35:21.061Z,86.30
2018-04-15T18:37:48.593Z,87.10
2018-04-15T18:40:15.216Z,87.20
2018-04-15T18:42:43.571Z,87.80
2018-04-15T18:45:10.864Z,88.00
2018-04-15T18:47:38.661Z,88.00
2018-04-15T18:50:06.138Z,88.30
2018-04-15T18:52:33.467Z,89.00
2018-04-15T18:55:00.780Z,88.80
2018-04-15T18:57:29.573Z,89.00
2018-04-15T18:59:56.890Z,88.80
2018-04-15T19:02:23.660Z,89.10
2018-04-15T19:04:50.211Z,89.20
2018-04-15T19:07:16.630Z,89.40
2018-04-15T19:09:43.276Z,89.50
2018-04-15T19:12:11.294Z,89.80
2018-04-15T19:14:39.209Z,89.80
2018-04-15T19:17:06.827Z,89.70
2018-04-15T19:19:33.485Z,89.70
2018-04-15T19:22:00.891Z,89.60
2018-04-15T19:24:27.452Z,89.60
2018-04-15T19:26:54.027Z,89.80
2018-04-15T19:29:22.425Z,90.00
2018-04-15T19:31:48.959Z,90.00
2018-04-15T19:34:15.497Z,90.10
2018-04-15T19:36:42.895Z,90.20
2018-04-15T19:39:10.264Z,90.30
2018-04-15T19:41:38.096Z,90.60
2018-04-15T19:44:04.695Z,90.90
2018-04-15T19:46:32.199Z,91.00
2018-04-15T19:49:00.104Z,90.90
2018-04-15T19:51:26.718Z,90.70
2018-04-15T19:53:53.991Z,90.50
2018-04-15T19:56:23.640Z,90.40
2018-04-15T19:58:51.980Z,90.40
2018-04-15T20:01:19.473Z,90.40
2018-04-15T20:03:46.017Z,90.50
2018-04-15T20:06:14.596Z,90.60
2018-04-15T20:08:43.012Z,91.00
2018-04-15T20:11:10.956Z,91.10
2018-04-15T20:13:39.686Z,91.10
2018-04-15T20:16:06.252Z,91.40
2018-04-15T20:18:34.635Z,91.00
2018-04-15T20:21:02.182Z,91.00
2018-04-15T20:23:30.176Z,91.00
2018-04-15T20:25:57.373Z,91.10
2018-04-15T20:28:24.113Z,91.00
2018-04-15T20:30:52.670Z,90.60
2018-04-15T20:33:19.917Z,90.40
2018-04-15T20:35:46.581Z,90.20
2018-04-15T20:38:14.571Z,89.70
2018-04-15T20:40:41.080Z,89.20
2018-04-15T20:43:08.300Z,88.10
2018-04-15T20:45:35.842Z,88.10
2018-04-15T20:48:05.335Z,87.80
2018-04-15T20:50:33.521Z,86.80
2018-04-15T20:53:03.204Z,85.80
2018-04-15T20:55:29.941Z,85.80
2018-04-15T20:58:00.592Z,85.10
2018-04-15T21:00:28.445Z,85.90
2018-04-15T21:02:55.471Z,85.90
2018-04-15T21:05:22.718Z,84.90
2018-04-15T21:10:18.875Z,85.20
2018-04-15T21:12:46.165Z,85.00
2018-04-15T21:15:14.154Z,85.00
2018-04-15T21:17:40.637Z,85.40
2018-04-15T21:20:07.226Z,85.30
2018-04-15T21:22:33.747Z,85.20
2018-04-15T21:25:00.257Z,85.10
2018-04-15T21:27:26.664Z,85.20
2018-04-15T21:29:54.245Z,86.20
2018-04-15T21:32:21.530Z,86.20
2018-04-15T21:34:48.165Z,85.50
2018-04-15T21:37:14.788Z,85.20
2018-04-15T21:39:41.476Z,85.40
2018-04-15T21:42:08.063Z,85.30
2018-04-15T21:44:34.536Z,85.30
2018-04-15T21:47:01.805Z,85.10
2018-04-15T21:49:29.089Z,84.70
2018-04-15T21:51:56.082Z,84.70
2018-04-15T21:54:23.442Z,85.50
2018-04-15T21:56:50.714Z,84.70
2018-04-15T21:59:17.206Z,84.70
2018-04-15T22:01:46.336Z,84.40
2018-04-15T22:04:13.605Z,84.60
2018-04-15T22:06:41.433Z,84.50
2018-04-15T22:09:08.889Z,84.50
2018-04-15T22:11:47.632Z,84.50
2018-04-15T22:14:14.163Z,84.60
2018-04-15T22:16:41.384Z,85.00
2018-04-15T22:19:08.602Z,84.80
2018-04-15T22:21:36.002Z,84.80
2018-04-15T22:24:02.516Z,85.70
2018-04-15T22:26:29.999Z,85.00
2018-04-15T22:28:56.463Z,85.20
2018-04-15T22:31:22.909Z,85.10
2018-04-15T22:33:49.641Z,85.00
2018-04-15T22:36:16.227Z,84.70
2018-04-15T22:38:45.576Z,84.40
2018-04-15T22:41:12.126Z,84.10
2018-04-15T22:43:38.648Z,83.80
2018-04-15T22:46:05.113Z,84.00
2018-04-15T22:48:37.621Z,84.00
2018-04-15T22:51:04.859Z,84.30
2018-04-15T22:53:31.917Z,84.30
2018-04-15T22:55:58.425Z,84.00
2018-04-15T22:58:33.491Z,83.50
2018-04-15T23:00:59.998Z,84.10
2018-04-15T23:03:27.224Z,83.80
2018-04-15T23:05:55.351Z,85.20
2018-04-15T23:08:22.488Z,85.20
2018-04-15T23:10:49.737Z,89.10
2018-04-15T23:13:17.135Z,89.20
2018-04-15T23:15:43.645Z,90.20
2018-04-15T23:18:12.578Z,90.40
2018-04-15T23:20:39.127Z,90.80
2018-04-15T23:23:07.302Z,91.50
2018-04-15T23:25:36.059Z,92.20
2018-04-15T23:28:05.324Z,92.50
2018-04-15T23:30:31.811Z,92.50
2018-04-15T23:32:58.501Z,92.40
2018-04-15T23:35:26.294Z,91.60
2018-04-15T23:37:53.742Z,91.50
2018-04-15T23:40:21.286Z,91.50
2018-04-15T23:42:48.568Z,91.10
2018-04-15T23:45:15.076Z,91.10
2018-04-15T23:47:42.410Z,91.00
2018-04-15T23:50:08.965Z,90.80
2018-04-15T23:52:36.952Z,90.80
2018-04-15T23:55:03.882Z,91.00
2018-04-15T23:57:32.472Z,90.80
